createdAt,value
2022-12-03T00:08:32.000Z,69.70
2022-12-03T00:18:32.000Z,64.60
2022-12-03T00:28:32.000Z,61.80
2022-12-03T00:38:32.000Z,60.40
2022-12-03T00:48:32.000Z,59.40
2022-12-03T00:58:31.000Z,61.10
2022-12-03T01:08:31.000Z,61.20
2022-12-03T01:18:31.000Z,64.20
2022-12-03T01:28:31.000Z,65.10
2022-12-03T01:38:31.000Z,65.30
2022-12-03T02:14:06.000Z,60.00
2022-12-03T02:14:06.000Z,62.60
2022-12-03T02:24:06.000Z,64.20
2022-12-03T02:34:06.000Z,61.80
2022-12-03T02:59:24.000Z,58.30
2022-12-03T02:59:24.000Z,60.30
2022-12-03T03:09:23.000Z,58.20
2022-12-03T03:19:23.000Z,56.70
2022-12-03T03:29:23.000Z,57.90
2022-12-03T03:54:40.000Z,50.30
2022-12-03T03:54:40.000Z,53.30
2022-12-03T04:04:40.000Z,51.50
2022-12-03T04:14:40.000Z,52.00
2022-12-03T04:24:40.000Z,49.70
2022-12-03T04:34:40.000Z,50.00
2022-12-03T04:44:40.000Z,47.70
2022-12-03T04:54:40.000Z,49.30
2022-12-03T05:04:39.000Z,49.00
2022-12-03T05:14:39.000Z,49.70
2022-12-03T05:24:39.000Z,50.40
2022-12-03T05:34:39.000Z,49.30
2022-12-03T05:44:39.000Z,50.80
2022-12-03T05:54:39.000Z,51.10
2022-12-03T06:04:39.000Z,50.80
2022-12-03T06:14:39.000Z,50.30
2022-12-03T06:24:39.000Z,47.50
2022-12-03T06:34:39.000Z,46.40
2022-12-03T06:44:38.000Z,45.50
2022-12-03T06:54:38.000Z,45.20
2022-12-03T07:04:38.000Z,46.60
2022-12-03T07:14:38.000Z,46.20
2022-12-03T07:24:38.000Z,46.50
2022-12-03T07:34:38.000Z,45.20
2022-12-03T07:44:38.000Z,46.10
2022-12-03T07:54:38.000Z,47.00
2022-12-03T08:04:38.000Z,47.80
2022-12-03T08:14:38.000Z,47.40
2022-12-03T08:24:38.000Z,49.70
2022-12-03T08:34:37.000Z,52.10
2022-12-03T08:44:37.000Z,54.30
2022-12-03T08:54:37.000Z,49.60
2022-12-03T09:04:37.000Z,48.40
2022-12-03T09:14:37.000Z,48.70
2022-12-03T09:24:37.000Z,43.10
2022-12-03T09:34:37.000Z,44.20
2022-12-03T09:44:37.000Z,44.30
2022-12-03T09:54:37.000Z,44.90
2022-12-03T10:04:37.000Z,43.70
2022-12-03T10:14:37.000Z,43.40
2022-12-03T10:24:36.000Z,42.60
2022-12-03T10:34:36.000Z,42.20
2022-12-03T10:44:36.000Z,42.10
2022-12-03T10:54:36.000Z,47.50
2022-12-03T11:04:36.000Z,46.30
2022-12-03T11:29:53.000Z,85.10
2022-12-03T11:29:53.000Z,44.60
2022-12-03T11:39:53.000Z,44.80
2022-12-03T11:49:53.000Z,47.10
2022-12-03T11:59:53.000Z,48.60
2022-12-03T12:09:53.000Z,67.40
2022-12-03T12:19:53.000Z,50.00
2022-12-03T12:29:53.000Z,46.30
2022-12-03T12:39:53.000Z,48.90
2022-12-03T12:49:53.000Z,60.30
2022-12-03T12:59:53.000Z,53.70
2022-12-03T13:09:52.000Z,57.50
2022-12-03T13:09:52.000Z,57.50
2022-12-03T13:19:52.000Z,60.80
2022-12-03T13:29:52.000Z,63.30
2022-12-03T13:39:52.000Z,65.60
2022-12-03T13:49:52.000Z,69.20
2022-12-03T13:59:52.000Z,69.00
2022-12-03T14:09:52.000Z,68.90
2022-12-03T14:19:52.000Z,78.80
2022-12-03T14:29:52.000Z,78.50
2022-12-03T14:39:52.000Z,72.10
2022-12-03T14:49:52.000Z,72.50
2022-12-03T14:59:51.000Z,75.90
2022-12-03T15:09:51.000Z,74.90
2022-12-03T15:19:51.000Z,73.40
2022-12-03T15:29:51.000Z,71.00
2022-12-03T15:39:51.000Z,74.40
2022-12-03T15:49:51.000Z,75.10
2022-12-03T15:59:51.000Z,76.80
2022-12-03T16:09:51.000Z,76.70
2022-12-03T16:19:51.000Z,81.90
2022-12-03T16:29:51.000Z,80.20
2022-12-03T16:39:51.000Z,76.00
2022-12-03T16:49:50.000Z,75.80
2022-12-03T16:59:50.000Z,79.90
2022-12-03T17:09:50.000Z,79.30
2022-12-03T17:19:50.000Z,77.50
2022-12-03T17:29:50.000Z,73.90
2022-12-03T18:00:08.000Z,58.80
2022-12-03T18:00:08.000Z,67.00
2022-12-03T18:10:07.000Z,69.30
2022-12-03T18:20:07.000Z,73.50
2022-12-03T18:30:07.000Z,76.10
2022-12-03T18:40:07.000Z,76.60
2022-12-03T18:50:07.000Z,83.50
2022-12-03T19:00:07.000Z,83.60
2022-12-03T19:10:07.000Z,83.00
2022-12-03T19:20:07.000Z,83.70
2022-12-03T19:30:07.000Z,83.20
2022-12-03T19:40:07.000Z,87.00
2022-12-03T19:40:07.000Z,87.00
2022-12-03T19:50:07.000Z,86.10
2022-12-03T20:00:06.000Z,86.70
2022-12-03T20:10:06.000Z,87.20
2022-12-03T20:20:06.000Z,84.70
2022-12-03T20:30:06.000Z,87.50
2022-12-03T20:40:06.000Z,86.80
2022-12-03T20:50:06.000Z,89.90
2022-12-03T21:00:06.000Z,88.90
2022-12-03T21:10:06.000Z,88.40
2022-12-03T21:20:06.000Z,90.90
2022-12-03T21:30:06.000Z,94.10
2022-12-03T21:40:06.000Z,89.90
2022-12-03T21:50:05.000Z,86.70
2022-12-03T22:00:05.000Z,89.70
2022-12-03T22:10:05.000Z,87.40
2022-12-03T22:20:05.000Z,90.90
2022-12-03T22:30:05.000Z,89.20
2022-12-03T22:40:05.000Z,90.40
2022-12-03T22:50:05.000Z,86.00
2022-12-03T23:00:05.000Z,85.30
2022-12-03T23:10:05.000Z,82.50
2022-12-03T23:20:05.000Z,83.90
2022-12-03T23:30:05.000Z,82.70
2022-12-03T23:40:04.000Z,83.20
2022-12-03T23:50:04.000Z,82.10
